sensor_id;sensor_type;location;lat;lon;timestamp;P1;durP1;ratioP1;P2;durP2;ratioP2
51883;SDS011;37915;53.254;6.598;2023-10-13T00:01:54;61.35;;;26.42;;
51883;SDS011;37915;53.254;6.598;2023-10-13T00:04:20;62.85;;;25.30;;
51883;SDS011;37915;53.254;6.598;2023-10-13T00:06:53;68.78;;;27.83;;
51883;SDS011;37915;53.254;6.598;2023-10-13T00:09:25;63.00;;;26.73;;
51883;SDS011;37915;53.254;6.598;2023-10-13T00:11:57;61.75;;;27.17;;
51883;SDS011;37915;53.254;6.598;2023-10-13T00:14:28;79.57;;;27.73;;
51883;SDS011;37915;53.254;6.598;2023-10-13T00:17:00;69.32;;;28.35;;
51883;SDS011;37915;53.254;6.598;2023-10-13T00:19:32;78.65;;;30.73;;
51883;SDS011;37915;53.254;6.598;2023-10-13T00:22:25;67.82;;;27.92;;
51883;SDS011;37915;53.254;6.598;2023-10-13T00:24:56;79.80;;;30.77;;
51883;SDS011;37915;53.254;6.598;2023-10-13T00:27:27;70.32;;;30.80;;
51883;SDS011;37915;53.254;6.598;2023-10-13T00:30:07;69.53;;;29.15;;
51883;SDS011;37915;53.254;6.598;2023-10-13T00:32:45;68.22;;;29.95;;
51883;SDS011;37915;53.254;6.598;2023-10-13T00:35:18;65.15;;;30.02;;
51883;SDS011;37915;53.254;6.598;2023-10-13T00:37:53;72.07;;;29.60;;
51883;SDS011;37915;53.254;6.598;2023-10-13T00:40:21;75.78;;;30.90;;
51883;SDS011;37915;53.254;6.598;2023-10-13T00:42:56;64.75;;;28.73;;
51883;SDS011;37915;53.254;6.598;2023-10-13T00:45:52;57.97;;;28.25;;
51883;SDS011;37915;53.254;6.598;2023-10-13T00:48:26;61.90;;;29.30;;
51883;SDS011;37915;53.254;6.598;2023-10-13T00:51:03;64.85;;;28.40;;
51883;SDS011;37915;53.254;6.598;2023-10-13T00:53:32;63.97;;;29.40;;
51883;SDS011;37915;53.254;6.598;2023-10-13T00:56:02;61.53;;;28.58;;
51883;SDS011;37915;53.254;6.598;2023-10-13T00:58:35;54.00;;;26.95;;
51883;SDS011;37915;53.254;6.598;2023-10-13T01:01:04;56.03;;;29.55;;
51883;SDS011;37915;53.254;6.598;2023-10-13T01:03:46;49.28;;;25.58;;
51883;SDS011;37915;53.254;6.598;2023-10-13T01:06:17;59.33;;;28.70;;
51883;SDS011;37915;53.254;6.598;2023-10-13T01:08:47;57.25;;;27.00;;
51883;SDS011;37915;53.254;6.598;2023-10-13T01:11:17;59.58;;;26.60;;
51883;SDS011;37915;53.254;6.598;2023-10-13T01:13:43;55.08;;;25.92;;
51883;SDS011;37915;53.254;6.598;2023-10-13T01:16:12;50.88;;;25.65;;
51883;SDS011;37915;53.254;6.598;2023-10-13T01:18:38;48.42;;;26.25;;
51883;SDS011;37915;53.254;6.598;2023-10-13T01:21:13;54.15;;;26.65;;
51883;SDS011;37915;53.254;6.598;2023-10-13T01:23:45;60.97;;;28.85;;
51883;SDS011;37915;53.254;6.598;2023-10-13T01:26:12;64.05;;;27.27;;
51883;SDS011;37915;53.254;6.598;2023-10-13T01:28:42;56.53;;;26.95;;
51883;SDS011;37915;53.254;6.598;2023-10-13T01:31:12;55.67;;;26.75;;
51883;SDS011;37915;53.254;6.598;2023-10-13T01:33:52;59.88;;;27.60;;
51883;SDS011;37915;53.254;6.598;2023-10-13T01:36:22;55.55;;;27.05;;
51883;SDS011;37915;53.254;6.598;2023-10-13T01:38:48;52.67;;;25.95;;
51883;SDS011;37915;53.254;6.598;2023-10-13T01:41:15;49.70;;;25.48;;
51883;SDS011;37915;53.254;6.598;2023-10-13T01:43:41;52.25;;;26.05;;
51883;SDS011;37915;53.254;6.598;2023-10-13T01:46:07;53.20;;;24.48;;
51883;SDS011;37915;53.254;6.598;2023-10-13T01:48:35;43.00;;;23.58;;
51883;SDS011;37915;53.254;6.598;2023-10-13T01:51:05;47.13;;;23.10;;
51883;SDS011;37915;53.254;6.598;2023-10-13T01:53:35;49.13;;;22.40;;
51883;SDS011;37915;53.254;6.598;2023-10-13T01:56:02;45.20;;;22.20;;
51883;SDS011;37915;53.254;6.598;2023-10-13T01:58:30;45.13;;;22.65;;
51883;SDS011;37915;53.254;6.598;2023-10-13T02:00:56;39.75;;;21.52;;
51883;SDS011;37915;53.254;6.598;2023-10-13T02:03:22;44.97;;;22.08;;
51883;SDS011;37915;53.254;6.598;2023-10-13T02:05:48;43.28;;;20.70;;
51883;SDS011;37915;53.254;6.598;2023-10-13T02:08:18;42.55;;;20.38;;
51883;SDS011;37915;53.254;6.598;2023-10-13T02:10:52;38.42;;;19.05;;
51883;SDS011;37915;53.254;6.598;2023-10-13T02:13:19;34.30;;;18.50;;
51883;SDS011;37915;53.254;6.598;2023-10-13T02:15:47;36.97;;;18.70;;
51883;SDS011;37915;53.254;6.598;2023-10-13T02:18:18;33.30;;;17.98;;
51883;SDS011;37915;53.254;6.598;2023-10-13T02:21:07;34.22;;;17.38;;
51883;SDS011;37915;53.254;6.598;2023-10-13T02:23:39;29.38;;;15.43;;
51883;SDS011;37915;53.254;6.598;2023-10-13T02:26:10;32.88;;;16.45;;
51883;SDS011;37915;53.254;6.598;2023-10-13T02:28:55;29.10;;;15.00;;
51883;SDS011;37915;53.254;6.598;2023-10-13T02:31:27;28.52;;;15.43;;
51883;SDS011;37915;53.254;6.598;2023-10-13T02:33:53;23.17;;;13.30;;
51883;SDS011;37915;53.254;6.598;2023-10-13T02:36:18;29.35;;;14.88;;
51883;SDS011;37915;53.254;6.598;2023-10-13T02:38:51;26.40;;;14.05;;
51883;SDS011;37915;53.254;6.598;2023-10-13T02:41:17;24.65;;;13.68;;
51883;SDS011;37915;53.254;6.598;2023-10-13T02:43:54;22.00;;;14.07;;
51883;SDS011;37915;53.254;6.598;2023-10-13T02:46:20;30.52;;;14.07;;
51883;SDS011;37915;53.254;6.598;2023-10-13T02:48:47;27.33;;;13.95;;
51883;SDS011;37915;53.254;6.598;2023-10-13T02:51:18;24.80;;;14.13;;
51883;SDS011;37915;53.254;6.598;2023-10-13T02:53:56;25.10;;;13.43;;
51883;SDS011;37915;53.254;6.598;2023-10-13T02:56:28;25.83;;;12.93;;
51883;SDS011;37915;53.254;6.598;2023-10-13T02:58:54;20.27;;;10.95;;
51883;SDS011;37915;53.254;6.598;2023-10-13T03:01:30;18.30;;;9.70;;
51883;SDS011;37915;53.254;6.598;2023-10-13T03:04:00;19.75;;;10.05;;
51883;SDS011;37915;53.254;6.598;2023-10-13T03:06:33;17.60;;;10.00;;
51883;SDS011;37915;53.254;6.598;2023-10-13T03:09:03;16.98;;;10.23;;
51883;SDS011;37915;53.254;6.598;2023-10-13T03:11:44;19.45;;;10.10;;
51883;SDS011;37915;53.254;6.598;2023-10-13T03:14:14;18.63;;;10.25;;
51883;SDS011;37915;53.254;6.598;2023-10-13T03:16:54;22.33;;;11.65;;
51883;SDS011;37915;53.254;6.598;2023-10-13T03:19:28;21.70;;;11.98;;
51883;SDS011;37915;53.254;6.598;2023-10-13T03:21:58;22.48;;;13.68;;
51883;SDS011;37915;53.254;6.598;2023-10-13T03:24:38;21.35;;;13.80;;
51883;SDS011;37915;53.254;6.598;2023-10-13T03:27:11;28.27;;;14.75;;
51883;SDS011;37915;53.254;6.598;2023-10-13T03:29:41;29.05;;;15.75;;
51883;SDS011;37915;53.254;6.598;2023-10-13T03:32:11;33.30;;;16.60;;
51883;SDS011;37915;53.254;6.598;2023-10-13T03:34:40;31.83;;;17.15;;
51883;SDS011;37915;53.254;6.598;2023-10-13T03:37:15;27.00;;;15.60;;
51883;SDS011;37915;53.254;6.598;2023-10-13T03:40:01;31.42;;;17.63;;
51883;SDS011;37915;53.254;6.598;2023-10-13T03:42:53;30.45;;;16.95;;
51883;SDS011;37915;53.254;6.598;2023-10-13T03:45:43;26.90;;;16.75;;
51883;SDS011;37915;53.254;6.598;2023-10-13T03:48:13;31.40;;;17.27;;
51883;SDS011;37915;53.254;6.598;2023-10-13T03:50:50;31.90;;;17.02;;
51883;SDS011;37915;53.254;6.598;2023-10-13T03:53:35;31.10;;;17.48;;
51883;SDS011;37915;53.254;6.598;2023-10-13T03:56:15;27.80;;;15.50;;
51883;SDS011;37915;53.254;6.598;2023-10-13T03:58:49;27.95;;;14.50;;
51883;SDS011;37915;53.254;6.598;2023-10-13T04:01:15;31.42;;;15.60;;
51883;SDS011;37915;53.254;6.598;2023-10-13T04:03:41;23.23;;;12.68;;
51883;SDS011;37915;53.254;6.598;2023-10-13T04:06:22;22.63;;;12.80;;
51883;SDS011;37915;53.254;6.598;2023-10-13T04:09:08;19.55;;;11.57;;
51883;SDS011;37915;53.254;6.598;2023-10-13T04:12:04;22.05;;;11.80;;
51883;SDS011;37915;53.254;6.598;2023-10-13T04:14:43;18.70;;;11.60;;
51883;SDS011;37915;53.254;6.598;2023-10-13T04:17:28;20.17;;;11.02;;
51883;SDS011;37915;53.254;6.598;2023-10-13T04:19:55;17.08;;;10.73;;
51883;SDS011;37915;53.254;6.598;2023-10-13T04:22:32;19.08;;;11.43;;
51883;SDS011;37915;53.254;6.598;2023-10-13T04:25:14;20.50;;;11.43;;
51883;SDS011;37915;53.254;6.598;2023-10-13T04:28:14;18.33;;;10.80;;
51883;SDS011;37915;53.254;6.598;2023-10-13T04:30:41;16.33;;;9.02;;
51883;SDS011;37915;53.254;6.598;2023-10-13T04:33:20;17.02;;;10.63;;
51883;SDS011;37915;53.254;6.598;2023-10-13T04:36:15;18.80;;;10.98;;
51883;SDS011;37915;53.254;6.598;2023-10-13T04:38:47;15.80;;;9.80;;
51883;SDS011;37915;53.254;6.598;2023-10-13T04:41:26;22.33;;;12.52;;
51883;SDS011;37915;53.254;6.598;2023-10-13T04:44:02;17.48;;;10.43;;
51883;SDS011;37915;53.254;6.598;2023-10-13T04:46:47;17.38;;;9.82;;
51883;SDS011;37915;53.254;6.598;2023-10-13T04:49:13;14.57;;;9.18;;
51883;SDS011;37915;53.254;6.598;2023-10-13T04:51:56;19.48;;;9.95;;
51883;SDS011;37915;53.254;6.598;2023-10-13T04:54:24;19.83;;;11.20;;
51883;SDS011;37915;53.254;6.598;2023-10-13T04:56:51;20.38;;;10.38;;
51883;SDS011;37915;53.254;6.598;2023-10-13T04:59:40;20.02;;;10.60;;
51883;SDS011;37915;53.254;6.598;2023-10-13T05:02:32;19.73;;;10.57;;
51883;SDS011;37915;53.254;6.598;2023-10-13T05:05:01;20.77;;;11.20;;
51883;SDS011;37915;53.254;6.598;2023-10-13T05:07:55;19.55;;;10.45;;
51883;SDS011;37915;53.254;6.598;2023-10-13T05:10:39;19.10;;;10.80;;
51883;SDS011;37915;53.254;6.598;2023-10-13T05:13:23;22.70;;;10.30;;
51883;SDS011;37915;53.254;6.598;2023-10-13T05:16:08;19.42;;;10.43;;
51883;SDS011;37915;53.254;6.598;2023-10-13T05:18:52;21.58;;;11.18;;
51883;SDS011;37915;53.254;6.598;2023-10-13T05:21:36;20.20;;;10.40;;
51883;SDS011;37915;53.254;6.598;2023-10-13T05:24:20;18.92;;;10.32;;
51883;SDS011;37915;53.254;6.598;2023-10-13T05:27:05;15.27;;;8.95;;
51883;SDS011;37915;53.254;6.598;2023-10-13T05:29:49;30.85;;;11.02;;
51883;SDS011;37915;53.254;6.598;2023-10-13T05:32:33;18.88;;;9.55;;
51883;SDS011;37915;53.254;6.598;2023-10-13T05:35:18;14.82;;;8.82;;
51883;SDS011;37915;53.254;6.598;2023-10-13T05:38:04;12.75;;;6.85;;
51883;SDS011;37915;53.254;6.598;2023-10-13T05:40:55;11.05;;;7.20;;
51883;SDS011;37915;53.254;6.598;2023-10-13T05:43:40;10.85;;;6.18;;
51883;SDS011;37915;53.254;6.598;2023-10-13T05:46:24;11.20;;;7.03;;
51883;SDS011;37915;53.254;6.598;2023-10-13T05:48:50;11.38;;;6.70;;
51883;SDS011;37915;53.254;6.598;2023-10-13T05:51:26;10.77;;;6.65;;
51883;SDS011;37915;53.254;6.598;2023-10-13T05:54:09;13.27;;;6.75;;
51883;SDS011;37915;53.254;6.598;2023-10-13T05:56:48;11.52;;;5.45;;
51883;SDS011;37915;53.254;6.598;2023-10-13T05:59:33;9.43;;;4.90;;
51883;SDS011;37915;53.254;6.598;2023-10-13T06:02:20;7.78;;;4.55;;
51883;SDS011;37915;53.254;6.598;2023-10-13T06:05:11;9.52;;;5.50;;
51883;SDS011;37915;53.254;6.598;2023-10-13T06:07:57;8.45;;;4.72;;
51883;SDS011;37915;53.254;6.598;2023-10-13T06:10:42;8.75;;;5.30;;
51883;SDS011;37915;53.254;6.598;2023-10-13T06:13:27;8.82;;;5.18;;
51883;SDS011;37915;53.254;6.598;2023-10-13T06:16:15;11.02;;;5.70;;
51883;SDS011;37915;53.254;6.598;2023-10-13T06:19:00;10.25;;;5.93;;
51883;SDS011;37915;53.254;6.598;2023-10-13T06:21:44;9.73;;;5.13;;
51883;SDS011;37915;53.254;6.598;2023-10-13T06:24:29;7.28;;;4.75;;
51883;SDS011;37915;53.254;6.598;2023-10-13T06:27:14;6.22;;;4.22;;
51883;SDS011;37915;53.254;6.598;2023-10-13T06:29:59;7.72;;;4.38;;
51883;SDS011;37915;53.254;6.598;2023-10-13T06:32:26;6.68;;;4.13;;
51883;SDS011;37915;53.254;6.598;2023-10-13T06:34:52;6.07;;;4.50;;
51883;SDS011;37915;53.254;6.598;2023-10-13T06:37:23;7.60;;;4.32;;
51883;SDS011;37915;53.254;6.598;2023-10-13T06:39:55;8.05;;;4.80;;
51883;SDS011;37915;53.254;6.598;2023-10-13T06:42:26;8.57;;;5.10;;
51883;SDS011;37915;53.254;6.598;2023-10-13T06:44:54;8.07;;;5.07;;
51883;SDS011;37915;53.254;6.598;2023-10-13T06:47:23;7.90;;;5.20;;
51883;SDS011;37915;53.254;6.598;2023-10-13T06:49:50;7.28;;;4.30;;
51883;SDS011;37915;53.254;6.598;2023-10-13T06:52:22;7.47;;;4.88;;
51883;SDS011;37915;53.254;6.598;2023-10-13T06:54:54;7.45;;;4.45;;
51883;SDS011;37915;53.254;6.598;2023-10-13T06:57:20;7.53;;;4.97;;
51883;SDS011;37915;53.254;6.598;2023-10-13T06:59:46;6.60;;;4.38;;
51883;SDS011;37915;53.254;6.598;2023-10-13T07:02:13;8.00;;;4.28;;
51883;SDS011;37915;53.254;6.598;2023-10-13T07:04:47;6.10;;;3.53;;
51883;SDS011;37915;53.254;6.598;2023-10-13T07:07:13;5.50;;;3.75;;
51883;SDS011;37915;53.254;6.598;2023-10-13T07:09:41;7.43;;;3.60;;
51883;SDS011;37915;53.254;6.598;2023-10-13T07:12:23;7.65;;;3.72;;
51883;SDS011;37915;53.254;6.598;2023-10-13T07:14:51;6.28;;;3.22;;
51883;SDS011;37915;53.254;6.598;2023-10-13T07:17:18;7.32;;;3.90;;
51883;SDS011;37915;53.254;6.598;2023-10-13T07:22:21;8.13;;;3.83;;
51883;SDS011;37915;53.254;6.598;2023-10-13T07:24:48;11.85;;;3.83;;
51883;SDS011;37915;53.254;6.598;2023-10-13T07:27:21;18.38;;;4.50;;
51883;SDS011;37915;53.254;6.598;2023-10-13T07:29:52;11.45;;;4.38;;
51883;SDS011;37915;53.254;6.598;2023-10-13T07:32:42;9.95;;;4.28;;
51883;SDS011;37915;53.254;6.598;2023-10-13T07:35:17;19.85;;;4.80;;
51883;SDS011;37915;53.254;6.598;2023-10-13T07:37:44;8.65;;;4.47;;
51883;SDS011;37915;53.254;6.598;2023-10-13T07:40:14;7.35;;;4.35;;
51883;SDS011;37915;53.254;6.598;2023-10-13T07:42:52;11.13;;;4.00;;
51883;SDS011;37915;53.254;6.598;2023-10-13T07:45:25;11.48;;;4.95;;
51883;SDS011;37915;53.254;6.598;2023-10-13T07:48:01;9.18;;;4.63;;
51883;SDS011;37915;53.254;6.598;2023-10-13T07:50:59;9.05;;;4.40;;
51883;SDS011;37915;53.254;6.598;2023-10-13T07:53:29;11.77;;;4.65;;
51883;SDS011;37915;53.254;6.598;2023-10-13T07:55:59;11.63;;;4.60;;
51883;SDS011;37915;53.254;6.598;2023-10-13T07:58:30;11.13;;;4.47;;
51883;SDS011;37915;53.254;6.598;2023-10-13T08:00:57;8.25;;;4.53;;
51883;SDS011;37915;53.254;6.598;2023-10-13T08:03:35;13.05;;;4.57;;
51883;SDS011;37915;53.254;6.598;2023-10-13T08:06:16;16.08;;;4.78;;
51883;SDS011;37915;53.254;6.598;2023-10-13T08:08:43;11.25;;;4.90;;
51883;SDS011;37915;53.254;6.598;2023-10-13T08:13:56;13.35;;;4.93;;
51883;SDS011;37915;53.254;6.598;2023-10-13T08:16:28;12.73;;;4.85;;
51883;SDS011;37915;53.254;6.598;2023-10-13T08:19:15;11.10;;;5.50;;
51883;SDS011;37915;53.254;6.598;2023-10-13T08:21:42;16.75;;;5.20;;
51883;SDS011;37915;53.254;6.598;2023-10-13T08:24:19;10.50;;;4.78;;
51883;SDS011;37915;53.254;6.598;2023-10-13T08:27:15;12.05;;;4.72;;
51883;SDS011;37915;53.254;6.598;2023-10-13T08:30:00;9.70;;;4.43;;
51883;SDS011;37915;53.254;6.598;2023-10-13T08:32:27;13.90;;;4.40;;
51883;SDS011;37915;53.254;6.598;2023-10-13T08:34:57;13.25;;;5.97;;
51883;SDS011;37915;53.254;6.598;2023-10-13T08:37:33;15.32;;;5.25;;
51883;SDS011;37915;53.254;6.598;2023-10-13T08:40:17;13.48;;;4.80;;
51883;SDS011;37915;53.254;6.598;2023-10-13T08:43:05;12.85;;;4.93;;
51883;SDS011;37915;53.254;6.598;2023-10-13T08:45:31;15.18;;;5.63;;
51883;SDS011;37915;53.254;6.598;2023-10-13T08:48:01;16.65;;;5.72;;
51883;SDS011;37915;53.254;6.598;2023-10-13T08:50:44;15.57;;;5.35;;
51883;SDS011;37915;53.254;6.598;2023-10-13T08:53:27;9.57;;;4.15;;
51883;SDS011;37915;53.254;6.598;2023-10-13T08:56:04;12.07;;;4.90;;
51883;SDS011;37915;53.254;6.598;2023-10-13T08:58:40;12.50;;;5.63;;
51883;SDS011;37915;53.254;6.598;2023-10-13T09:04:03;12.80;;;4.72;;
51883;SDS011;37915;53.254;6.598;2023-10-13T09:07:02;14.65;;;5.60;;
51883;SDS011;37915;53.254;6.598;2023-10-13T09:09:32;10.52;;;4.80;;
51883;SDS011;37915;53.254;6.598;2023-10-13T09:12:13;14.65;;;6.63;;
51883;SDS011;37915;53.254;6.598;2023-10-13T09:14:42;10.50;;;4.95;;
51883;SDS011;37915;53.254;6.598;2023-10-13T09:17:21;13.60;;;5.90;;
51883;SDS011;37915;53.254;6.598;2023-10-13T09:22:57;18.52;;;6.32;;
51883;SDS011;37915;53.254;6.598;2023-10-13T09:25:26;15.95;;;5.97;;
51883;SDS011;37915;53.254;6.598;2023-10-13T09:27:58;16.08;;;6.70;;
51883;SDS011;37915;53.254;6.598;2023-10-13T09:30:25;14.32;;;6.03;;
51883;SDS011;37915;53.254;6.598;2023-10-13T09:33:03;11.68;;;5.35;;
51883;SDS011;37915;53.254;6.598;2023-10-13T09:35:30;13.70;;;5.78;;
51883;SDS011;37915;53.254;6.598;2023-10-13T09:37:59;9.98;;;4.95;;
51883;SDS011;37915;53.254;6.598;2023-10-13T09:40:29;9.80;;;5.57;;
51883;SDS011;37915;53.254;6.598;2023-10-13T09:42:58;14.98;;;5.65;;
51883;SDS011;37915;53.254;6.598;2023-10-13T09:48:22;13.30;;;6.80;;
51883;SDS011;37915;53.254;6.598;2023-10-13T09:50:53;8.82;;;5.93;;
51883;SDS011;37915;53.254;6.598;2023-10-13T09:53:24;15.15;;;6.38;;
51883;SDS011;37915;53.254;6.598;2023-10-13T09:55:53;12.35;;;6.22;;
51883;SDS011;37915;53.254;6.598;2023-10-13T09:58:36;13.15;;;5.45;;
51883;SDS011;37915;53.254;6.598;2023-10-13T10:01:12;10.20;;;5.45;;
51883;SDS011;37915;53.254;6.598;2023-10-13T10:03:49;13.63;;;5.57;;
51883;SDS011;37915;53.254;6.598;2023-10-13T10:06:33;15.52;;;6.35;;
51883;SDS011;37915;53.254;6.598;2023-10-13T10:09:08;11.13;;;4.65;;
51883;SDS011;37915;53.254;6.598;2023-10-13T10:17:05;12.68;;;4.65;;
51883;SDS011;37915;53.254;6.598;2023-10-13T10:19:45;14.00;;;5.40;;
51883;SDS011;37915;53.254;6.598;2023-10-13T10:22:24;14.63;;;5.22;;
51883;SDS011;37915;53.254;6.598;2023-10-13T10:24:58;13.30;;;5.47;;
51883;SDS011;37915;53.254;6.598;2023-10-13T10:27:28;11.23;;;4.78;;
51883;SDS011;37915;53.254;6.598;2023-10-13T10:29:56;9.10;;;4.03;;
51883;SDS011;37915;53.254;6.598;2023-10-13T10:32:35;12.13;;;4.75;;
51883;SDS011;37915;53.254;6.598;2023-10-13T10:35:08;15.93;;;5.63;;
51883;SDS011;37915;53.254;6.598;2023-10-13T10:37:40;13.85;;;4.93;;
51883;SDS011;37915;53.254;6.598;2023-10-13T10:40:12;14.35;;;5.95;;
51883;SDS011;37915;53.254;6.598;2023-10-13T10:42:58;11.80;;;5.13;;
51883;SDS011;37915;53.254;6.598;2023-10-13T10:45:33;16.02;;;5.10;;
51883;SDS011;37915;53.254;6.598;2023-10-13T10:48:00;16.25;;;5.40;;
51883;SDS011;37915;53.254;6.598;2023-10-13T10:50:42;13.70;;;5.25;;
51883;SDS011;37915;53.254;6.598;2023-10-13T10:53:08;15.43;;;5.57;;
51883;SDS011;37915;53.254;6.598;2023-10-13T10:55:35;10.40;;;4.60;;
51883;SDS011;37915;53.254;6.598;2023-10-13T10:58:02;9.85;;;5.28;;
51883;SDS011;37915;53.254;6.598;2023-10-13T11:00:31;12.95;;;5.15;;
51883;SDS011;37915;53.254;6.598;2023-10-13T11:03:20;14.60;;;5.22;;
51883;SDS011;37915;53.254;6.598;2023-10-13T11:05:46;9.57;;;4.30;;
51883;SDS011;37915;53.254;6.598;2023-10-13T11:08:20;15.55;;;5.30;;
51883;SDS011;37915;53.254;6.598;2023-10-13T11:10:56;13.85;;;5.53;;
51883;SDS011;37915;53.254;6.598;2023-10-13T11:13:22;12.60;;;4.82;;
51883;SDS011;37915;53.254;6.598;2023-10-13T11:15:48;18.30;;;5.72;;
51883;SDS011;37915;53.254;6.598;2023-10-13T11:18:15;13.73;;;5.15;;
51883;SDS011;37915;53.254;6.598;2023-10-13T11:20:46;16.92;;;4.45;;
51883;SDS011;37915;53.254;6.598;2023-10-13T11:23:15;14.45;;;5.75;;
51883;SDS011;37915;53.254;6.598;2023-10-13T11:25:41;16.48;;;4.32;;
51883;SDS011;37915;53.254;6.598;2023-10-13T11:28:10;14.75;;;5.13;;
51883;SDS011;37915;53.254;6.598;2023-10-13T11:30:45;23.65;;;6.45;;
51883;SDS011;37915;53.254;6.598;2023-10-13T11:33:15;15.00;;;5.57;;
51883;SDS011;37915;53.254;6.598;2023-10-13T11:35:52;12.90;;;4.90;;
51883;SDS011;37915;53.254;6.598;2023-10-13T11:38:18;11.30;;;4.43;;
51883;SDS011;37915;53.254;6.598;2023-10-13T11:40:54;9.77;;;4.80;;
51883;SDS011;37915;53.254;6.598;2023-10-13T11:43:31;12.45;;;5.28;;
51883;SDS011;37915;53.254;6.598;2023-10-13T11:46:18;17.08;;;5.15;;
51883;SDS011;37915;53.254;6.598;2023-10-13T11:49:00;13.25;;;4.35;;
51883;SDS011;37915;53.254;6.598;2023-10-13T11:51:42;18.90;;;5.10;;
51883;SDS011;37915;53.254;6.598;2023-10-13T11:54:15;14.60;;;3.92;;
51883;SDS011;37915;53.254;6.598;2023-10-13T11:56:47;13.85;;;5.40;;
51883;SDS011;37915;53.254;6.598;2023-10-13T11:59:13;12.93;;;5.07;;
51883;SDS011;37915;53.254;6.598;2023-10-13T12:01:45;11.48;;;4.50;;
51883;SDS011;37915;53.254;6.598;2023-10-13T12:04:30;13.00;;;5.50;;
51883;SDS011;37915;53.254;6.598;2023-10-13T12:07:14;16.50;;;5.75;;
51883;SDS011;37915;53.254;6.598;2023-10-13T12:09:45;12.13;;;4.88;;
51883;SDS011;37915;53.254;6.598;2023-10-13T12:12:24;12.85;;;5.45;;
51883;SDS011;37915;53.254;6.598;2023-10-13T12:14:51;11.57;;;4.70;;
51883;SDS011;37915;53.254;6.598;2023-10-13T12:17:24;14.48;;;5.38;;
51883;SDS011;37915;53.254;6.598;2023-10-13T12:20:03;14.85;;;5.30;;
51883;SDS011;37915;53.254;6.598;2023-10-13T12:22:36;15.35;;;5.80;;
51883;SDS011;37915;53.254;6.598;2023-10-13T12:25:07;15.73;;;5.63;;
51883;SDS011;37915;53.254;6.598;2023-10-13T12:27:53;10.88;;;5.00;;
51883;SDS011;37915;53.254;6.598;2023-10-13T12:30:26;15.82;;;5.88;;
51883;SDS011;37915;53.254;6.598;2023-10-13T12:33:01;16.63;;;6.13;;
51883;SDS011;37915;53.254;6.598;2023-10-13T12:35:40;16.55;;;5.50;;
51883;SDS011;37915;53.254;6.598;2023-10-13T12:38:24;14.48;;;5.35;;
51883;SDS011;37915;53.254;6.598;2023-10-13T12:41:20;12.70;;;5.53;;
51883;SDS011;37915;53.254;6.598;2023-10-13T12:44:05;14.75;;;5.65;;
51883;SDS011;37915;53.254;6.598;2023-10-13T12:46:50;13.30;;;5.70;;
51883;SDS011;37915;53.254;6.598;2023-10-13T12:49:35;13.75;;;5.80;;
51883;SDS011;37915;53.254;6.598;2023-10-13T12:52:08;13.48;;;5.57;;
51883;SDS011;37915;53.254;6.598;2023-10-13T12:55:03;16.95;;;5.90;;
51883;SDS011;37915;53.254;6.598;2023-10-13T12:57:32;12.90;;;6.57;;
51883;SDS011;37915;53.254;6.598;2023-10-13T12:59:58;17.20;;;6.30;;
51883;SDS011;37915;53.254;6.598;2023-10-13T13:02:24;12.07;;;5.40;;
51883;SDS011;37915;53.254;6.598;2023-10-13T13:04:55;15.50;;;6.70;;
51883;SDS011;37915;53.254;6.598;2023-10-13T13:07:31;14.25;;;6.07;;
51883;SDS011;37915;53.254;6.598;2023-10-13T13:10:08;17.33;;;6.65;;
51883;SDS011;37915;53.254;6.598;2023-10-13T13:12:39;16.02;;;6.50;;
51883;SDS011;37915;53.254;6.598;2023-10-13T13:15:07;12.43;;;5.95;;
51883;SDS011;37915;53.254;6.598;2023-10-13T13:17:37;11.68;;;6.68;;
51883;SDS011;37915;53.254;6.598;2023-10-13T13:20:07;18.02;;;6.90;;
51883;SDS011;37915;53.254;6.598;2023-10-13T13:22:50;12.77;;;6.63;;
51883;SDS011;37915;53.254;6.598;2023-10-13T13:25:18;18.60;;;8.45;;
51883;SDS011;37915;53.254;6.598;2023-10-13T13:27:50;16.23;;;7.95;;
51883;SDS011;37915;53.254;6.598;2023-10-13T13:30:16;16.25;;;7.38;;
51883;SDS011;37915;53.254;6.598;2023-10-13T13:32:45;15.65;;;6.00;;
51883;SDS011;37915;53.254;6.598;2023-10-13T13:35:11;15.95;;;7.15;;
51883;SDS011;37915;53.254;6.598;2023-10-13T13:37:39;13.55;;;6.47;;
51883;SDS011;37915;53.254;6.598;2023-10-13T13:40:05;16.13;;;7.70;;
51883;SDS011;37915;53.254;6.598;2023-10-13T13:42:44;15.45;;;7.43;;
51883;SDS011;37915;53.254;6.598;2023-10-13T13:45:14;12.13;;;7.10;;
51883;SDS011;37915;53.254;6.598;2023-10-13T13:48:01;20.05;;;7.85;;
51883;SDS011;37915;53.254;6.598;2023-10-13T13:50:32;19.02;;;7.70;;
51883;SDS011;37915;53.254;6.598;2023-10-13T13:53:06;17.13;;;7.53;;
51883;SDS011;37915;53.254;6.598;2023-10-13T13:55:35;18.77;;;7.25;;
51883;SDS011;37915;53.254;6.598;2023-10-13T13:58:00;21.45;;;7.32;;
51883;SDS011;37915;53.254;6.598;2023-10-13T14:00:30;18.58;;;6.80;;
51883;SDS011;37915;53.254;6.598;2023-10-13T14:03:11;16.27;;;7.63;;
51883;SDS011;37915;53.254;6.598;2023-10-13T14:05:55;14.38;;;7.32;;
51883;SDS011;37915;53.254;6.598;2023-10-13T14:08:24;13.98;;;6.65;;
51883;SDS011;37915;53.254;6.598;2023-10-13T14:10:51;23.48;;;6.65;;
51883;SDS011;37915;53.254;6.598;2023-10-13T14:13:42;21.35;;;6.88;;
51883;SDS011;37915;53.254;6.598;2023-10-13T14:16:17;18.60;;;7.18;;
51883;SDS011;37915;53.254;6.598;2023-10-13T14:18:47;15.48;;;7.05;;
51883;SDS011;37915;53.254;6.598;2023-10-13T14:21:14;18.05;;;6.57;;
51883;SDS011;37915;53.254;6.598;2023-10-13T14:23:47;16.02;;;7.30;;
51883;SDS011;37915;53.254;6.598;2023-10-13T14:26:14;14.73;;;6.68;;
51883;SDS011;37915;53.254;6.598;2023-10-13T14:28:45;14.35;;;6.55;;
51883;SDS011;37915;53.254;6.598;2023-10-13T14:31:30;20.48;;;7.57;;
51883;SDS011;37915;53.254;6.598;2023-10-13T14:33:56;19.35;;;7.03;;
51883;SDS011;37915;53.254;6.598;2023-10-13T14:36:23;12.90;;;6.80;;
51883;SDS011;37915;53.254;6.598;2023-10-13T14:38:49;14.57;;;5.95;;
51883;SDS011;37915;53.254;6.598;2023-10-13T14:41:15;17.48;;;6.70;;
51883;SDS011;37915;53.254;6.598;2023-10-13T14:43:42;16.83;;;6.35;;
51883;SDS011;37915;53.254;6.598;2023-10-13T14:46:13;12.57;;;6.50;;
51883;SDS011;37915;53.254;6.598;2023-10-13T14:48:42;16.33;;;6.65;;
51883;SDS011;37915;53.254;6.598;2023-10-13T14:51:12;17.67;;;6.32;;
51883;SDS011;37915;53.254;6.598;2023-10-13T14:53:44;13.50;;;6.10;;
51883;SDS011;37915;53.254;6.598;2023-10-13T14:56:11;14.75;;;6.57;;
51883;SDS011;37915;53.254;6.598;2023-10-13T14:58:37;16.33;;;6.97;;
51883;SDS011;37915;53.254;6.598;2023-10-13T15:01:12;13.63;;;6.27;;
51883;SDS011;37915;53.254;6.598;2023-10-13T15:03:44;13.15;;;6.45;;
51883;SDS011;37915;53.254;6.598;2023-10-13T15:06:18;20.77;;;6.72;;
51883;SDS011;37915;53.254;6.598;2023-10-13T15:08:54;17.08;;;6.95;;
51883;SDS011;37915;53.254;6.598;2023-10-13T15:11:21;20.88;;;6.35;;
51883;SDS011;37915;53.254;6.598;2023-10-13T15:13:51;14.60;;;6.80;;
51883;SDS011;37915;53.254;6.598;2023-10-13T15:16:21;17.15;;;6.70;;
51883;SDS011;37915;53.254;6.598;2023-10-13T15:18:49;18.50;;;7.20;;
51883;SDS011;37915;53.254;6.598;2023-10-13T15:21:26;16.33;;;7.07;;
51883;SDS011;37915;53.254;6.598;2023-10-13T15:23:59;11.90;;;6.47;;
51883;SDS011;37915;53.254;6.598;2023-10-13T15:26:32;16.35;;;6.25;;
51883;SDS011;37915;53.254;6.598;2023-10-13T15:29:06;16.83;;;6.18;;
51883;SDS011;37915;53.254;6.598;2023-10-13T15:31:37;13.70;;;6.05;;
51883;SDS011;37915;53.254;6.598;2023-10-13T15:34:05;11.77;;;6.25;;